Time;durP1;ratioP1;P1;durP2;ratioP2;P2;SDS_P1;SDS_P2;PMS_P1;PMS_P2;Temp;Humidity;BMP_temperature;BMP_pressure;BME280_temperature;BME280_humidity;BME280_pressure;Samples;Min_cycle;Max_cycle;Signal;HPM_P1;HPM_P2
2021/05/15 00:00:23;;;;;;;5.22;3.38;;;24.50;44.10;;;;;;6175654;28;84357;-66
2021/05/15 00:03:24;;;;;;;4.43;3.28;;;24.50;44.00;;;;;;6176665;28;80864;-66
2021/05/15 00:06:24;;;;;;;4.75;3.47;;;24.50;44.10;;;;;;6166443;28;81044;-65
2021/05/15 00:09:25;;;;;;;4.50;3.38;;;24.50;44.50;;;;;;6171060;28;80624;-65
2021/05/15 00:12:26;;;;;;;6.65;3.55;;;24.50;44.30;;;;;;6167335;28;81488;-65
2021/05/15 00:15:27;;;;;;;5.05;3.47;;;24.50;44.10;;;;;;6169047;28;80393;-66
2021/05/15 00:18:27;;;;;;;4.50;3.38;;;24.50;43.90;;;;;;6170535;28;80604;-66
2021/05/15 00:21:28;;;;;;;4.78;3.42;;;24.50;43.90;;;;;;6169180;28;80596;-66
2021/05/15 00:24:28;;;;;;;5.72;3.65;;;24.50;44.20;;;;;;6170042;28;81628;-66
2021/05/15 00:27:29;;;;;;;6.95;4.05;;;24.50;43.90;;;;;;6178665;28;80454;-66
2021/05/15 00:30:29;;;;;;;4.30;3.30;;;24.50;43.80;;;;;;6172323;28;80599;-66
2021/05/15 00:33:30;;;;;;;5.30;3.35;;;24.50;44.10;;;;;;6171881;28;82845;-67
2021/05/15 00:36:30;;;;;;;4.50;3.28;;;24.50;43.90;;;;;;6175990;28;81067;-67
2021/05/15 00:39:31;;;;;;;3.78;3.13;;;24.50;44.00;;;;;;6165122;28;81513;-66
2021/05/15 00:42:32;;;;;;;7.20;3.45;;;24.50;44.00;;;;;;6172706;28;80395;-66
2021/05/15 00:45:33;;;;;;;6.72;3.20;;;24.50;43.90;;;;;;6174827;28;81234;-67
2021/05/15 00:48:33;;;;;;;5.60;3.30;;;24.50;44.00;;;;;;6169881;28;80676;-66
2021/05/15 00:51:34;;;;;;;4.30;3.35;;;24.50;44.00;;;;;;6167514;28;81087;-66
2021/05/15 00:54:34;;;;;;;4.82;3.47;;;24.40;43.70;;;;;;6173326;28;80615;-66
2021/05/15 00:57:35;;;;;;;3.85;2.63;;;24.50;44.10;;;;;;6178241;28;82263;-66
2021/05/15 01:00:35;;;;;;;4.85;3.38;;;24.40;44.00;;;;;;6171147;28;81648;-66
2021/05/15 01:03:36;;;;;;;4.70;3.28;;;24.50;43.90;;;;;;6191997;28;81659;-66
2021/05/15 01:06:36;;;;;;;4.45;3.10;;;24.50;43.90;;;;;;6165830;28;80755;-67
2021/05/15 01:09:37;;;;;;;6.00;3.80;;;24.50;44.00;;;;;;6170151;28;81021;-67
2021/05/15 01:12:37;;;;;;;5.43;3.10;;;24.50;44.10;;;;;;6173839;28;81609;-66
2021/05/15 01:15:38;;;;;;;6.18;3.42;;;24.50;43.80;;;;;;6172973;28;82148;-66
2021/05/15 01:18:38;;;;;;;5.75;3.85;;;24.40;43.90;;;;;;6175562;28;80795;-66
2021/05/15 01:21:39;;;;;;;6.72;3.58;;;24.40;43.80;;;;;;6179049;28;80316;-66
2021/05/15 01:24:39;;;;;;;6.60;3.78;;;24.50;43.80;;;;;;6172688;28;80555;-66
2021/05/15 01:27:40;;;;;;;3.83;3.00;;;24.40;43.80;;;;;;6171282;28;88804;-66
2021/05/15 01:30:40;;;;;;;8.27;3.80;;;24.40;43.90;;;;;;6164405;28;80954;-68
2021/05/15 01:33:41;;;;;;;4.35;3.00;;;24.50;43.80;;;;;;6171593;28;81663;-67
2021/05/15 01:36:42;;;;;;;4.78;3.15;;;24.40;43.70;;;;;;6161527;28;81337;-67
2021/05/15 01:39:43;;;;;;;4.97;3.42;;;24.40;43.80;;;;;;6176093;28;80711;-66
2021/05/15 01:42:43;;;;;;;4.95;3.22;;;24.40;44.00;;;;;;6177304;28;80622;-65
2021/05/15 01:45:44;;;;;;;4.18;2.90;;;24.40;44.00;;;;;;6175337;28;80121;-65
2021/05/15 01:48:44;;;;;;;4.00;2.92;;;24.40;43.60;;;;;;6175010;28;80513;-65
2021/05/15 01:51:45;;;;;;;4.93;3.05;;;24.40;43.50;;;;;;6177927;28;81413;-66
2021/05/15 01:54:45;;;;;;;5.43;3.33;;;24.40;43.40;;;;;;6183177;28;80462;-67
2021/05/15 01:57:46;;;;;;;4.68;3.05;;;24.40;43.60;;;;;;6173010;28;81198;-65
2021/05/15 02:00:47;;;;;;;4.75;2.58;;;24.40;43.80;;;;;;6181906;28;83284;-66
2021/05/15 02:03:47;;;;;;;4.75;3.08;;;24.40;43.70;;;;;;6180320;28;80757;-66
2021/05/15 02:06:48;;;;;;;5.30;3.35;;;24.40;43.70;;;;;;6173009;28;81391;-66
2021/05/15 02:09:48;;;;;;;4.88;2.83;;;24.40;44.10;;;;;;6178686;28;80660;-67
2021/05/15 02:12:49;;;;;;;5.30;3.00;;;24.40;43.80;;;;;;6179549;28;80442;-67
2021/05/15 02:15:49;;;;;;;4.63;2.80;;;24.40;43.70;;;;;;6174800;28;80727;-66
2021/05/15 02:18:50;;;;;;;2.65;2.45;;;24.40;43.80;;;;;;6181940;28;80686;-66
2021/05/15 02:21:50;;;;;;;4.65;2.70;;;24.40;43.70;;;;;;6176388;28;80551;-66
2021/05/15 02:24:51;;;;;;;3.88;2.80;;;24.40;43.70;;;;;;6181412;28;81302;-66
2021/05/15 02:27:51;;;;;;;3.83;2.78;;;24.40;43.70;;;;;;6167074;28;80390;-66
2021/05/15 02:30:52;;;;;;;3.55;2.67;;;24.40;43.30;;;;;;6170170;28;80439;-66
2021/05/15 02:33:52;;;;;;;4.90;2.70;;;24.40;43.60;;;;;;6171061;28;80552;-66
2021/05/15 02:36:53;;;;;;;4.07;2.60;;;24.40;44.00;;;;;;6177880;28;80624;-65
2021/05/15 02:39:54;;;;;;;4.35;2.80;;;24.40;43.70;;;;;;6174857;28;80886;-65
2021/05/15 02:42:54;;;;;;;3.05;2.30;;;24.40;43.90;;;;;;6179252;28;81084;-66
2021/05/15 02:45:55;;;;;;;3.03;2.25;;;24.40;43.60;;;;;;6175553;28;80319;-65
2021/05/15 02:48:55;;;;;;;3.85;2.90;;;24.40;43.60;;;;;;6168537;28;80895;-65
2021/05/15 02:51:56;;;;;;;3.72;2.97;;;24.40;43.80;;;;;;6172675;28;80439;-65
2021/05/15 02:54:56;;;;;;;3.45;2.65;;;24.40;43.70;;;;;;6174543;28;82011;-65
2021/05/15 02:57:57;;;;;;;3.58;2.72;;;24.40;43.80;;;;;;6173545;28;80829;-64
2021/05/15 03:00:57;;;;;;;3.90;2.58;;;24.40;43.70;;;;;;6177965;28;80764;-64
2021/05/15 03:03:58;;;;;;;2.90;2.40;;;24.40;43.80;;;;;;6175477;28;80453;-65
2021/05/15 03:06:58;;;;;;;4.97;2.83;;;24.40;43.70;;;;;;6180516;28;81041;-66
2021/05/15 03:09:59;;;;;;;4.03;2.63;;;24.40;43.70;;;;;;6175008;28;80452;-66
2021/05/15 03:12:59;;;;;;;5.38;2.85;;;24.40;43.50;;;;;;6176093;28;80874;-67
2021/05/15 03:16:00;;;;;;;2.42;2.05;;;24.40;43.70;;;;;;6179379;28;80374;-67
2021/05/15 03:19:00;;;;;;;3.30;2.72;;;24.40;43.90;;;;;;6170374;28;80561;-66
2021/05/15 03:22:01;;;;;;;3.17;2.60;;;24.40;43.60;;;;;;6177507;28;80162;-66
2021/05/15 03:25:01;;;;;;;5.15;2.67;;;24.40;43.30;;;;;;6177564;28;80413;-66
2021/05/15 03:28:02;;;;;;;3.75;2.67;;;24.40;43.50;;;;;;6171440;28;80718;-66
2021/05/15 03:31:02;;;;;;;5.18;2.63;;;24.40;43.70;;;;;;6176044;28;80808;-66
2021/05/15 03:34:03;;;;;;;3.20;2.50;;;24.40;43.10;;;;;;6172598;28;80690;-64
2021/05/15 03:37:03;;;;;;;3.13;2.08;;;24.40;44.00;;;;;;6173831;28;80253;-64
2021/05/15 03:40:04;;;;;;;2.67;2.45;;;24.40;43.80;;;;;;6176414;28;80474;-65
2021/05/15 03:43:04;;;;;;;4.88;2.55;;;24.40;44.00;;;;;;6177859;28;80479;-65
2021/05/15 03:46:05;;;;;;;4.18;2.45;;;24.40;44.10;;;;;;6174888;28;82315;-65
2021/05/15 03:49:05;;;;;;;5.47;2.45;;;24.40;43.90;;;;;;6171735;28;80652;-65
2021/05/15 03:52:06;;;;;;;3.90;2.42;;;24.40;43.80;;;;;;6174966;28;80381;-64
2021/05/15 03:55:06;;;;;;;3.38;2.38;;;24.40;43.80;;;;;;6176887;28;80721;-65
2021/05/15 03:58:07;;;;;;;2.53;2.05;;;24.40;43.50;;;;;;6169452;28;80978;-65
2021/05/15 04:01:07;;;;;;;3.17;2.20;;;24.40;43.70;;;;;;6182570;28;80607;-65
2021/05/15 04:04:08;;;;;;;3.40;2.13;;;24.40;43.60;;;;;;6167102;28;80828;-64
2021/05/15 04:07:08;;;;;;;2.53;2.03;;;24.40;43.50;;;;;;6169228;28;80248;-65
2021/05/15 04:10:09;;;;;;;3.13;2.20;;;24.40;44.30;;;;;;6175131;28;81474;-66
2021/05/15 04:13:26;;;;;;;3.03;2.13;;;24.40;43.60;;;;;;6172921;28;80777;-65
2021/05/15 04:16:48;;;;;;;3.88;2.20;;;24.40;43.50;;;;;;6167627;28;84907;-65
2021/05/15 04:19:48;;;;;;;2.80;2.10;;;24.40;43.60;;;;;;6176053;28;81650;-65
2021/05/15 04:22:49;;;;;;;3.30;2.30;;;24.40;43.50;;;;;;6172852;28;80356;-66
2021/05/15 04:25:49;;;;;;;3.47;2.30;;;24.50;43.80;;;;;;6178968;28;80783;-65
2021/05/15 04:28:50;;;;;;;2.20;1.90;;;24.50;43.50;;;;;;6176410;28;82505;-66
2021/05/15 04:31:53;;;;;;;4.72;2.00;;;24.50;43.80;;;;;;6176359;28;80450;-67
2021/05/15 04:34:54;;;;;;;7.15;2.47;;;24.40;43.40;;;;;;6177753;28;80630;-68
2021/05/15 04:37:54;;;;;;;9.20;3.70;;;24.50;43.50;;;;;;6178497;28;82926;-69
2021/05/15 04:40:55;;;;;;;14.75;3.38;;;24.50;43.10;;;;;;6177941;28;81575;-68
2021/05/15 04:43:55;;;;;;;4.80;2.85;;;24.50;43.60;;;;;;6173745;28;80669;-70
2021/05/15 04:46:56;;;;;;;8.40;3.20;;;24.60;44.30;;;;;;6178065;28;80250;-68
2021/05/15 04:49:56;;;;;;;3.47;2.78;;;24.50;43.80;;;;;;6178033;28;81663;-67
2021/05/15 04:52:57;;;;;;;4.15;3.08;;;24.60;44.10;;;;;;6166277;28;80505;-67
2021/05/15 04:55:57;;;;;;;8.32;3.28;;;24.60;43.90;;;;;;6170084;28;80481;-67
2021/05/15 04:58:58;;;;;;;4.75;2.80;;;24.60;44.20;;;;;;6168237;28;81077;-67
2021/05/15 05:01:58;;;;;;;9.70;2.78;;;24.60;44.00;;;;;;6171752;28;81039;-67
2021/05/15 05:04:59;;;;;;;5.60;2.30;;;24.60;43.70;;;;;;6175246;28;80539;-67
2021/05/15 05:07:59;;;;;;;4.20;2.60;;;24.60;44.10;;;;;;6175109;28;80396;-67
2021/05/15 05:11:00;;;;;;;11.95;2.92;;;24.60;44.90;;;;;;6177933;28;82895;-67
2021/05/15 05:14:00;;;;;;;3.08;2.55;;;24.60;46.10;;;;;;6177774;28;80357;-67
2021/05/15 05:17:01;;;;;;;3.78;2.45;;;24.70;46.00;;;;;;6178468;28;80690;-67
2021/05/15 05:20:02;;;;;;;9.05;3.60;;;24.70;47.00;;;;;;6175516;28;80619;-68
2021/05/15 05:23:02;;;;;;;9.48;3.05;;;24.70;45.90;;;;;;6171880;28;81037;-68
2021/05/15 05:26:03;;;;;;;10.95;3.10;;;24.70;46.20;;;;;;6175023;28;81452;-68
2021/05/15 05:29:07;;;;;;;7.10;3.20;;;24.70;46.70;;;;;;6165520;28;80555;-69
2021/05/15 05:32:09;;;;;;;7.50;2.53;;;24.80;46.90;;;;;;6171940;28;80407;-68
2021/05/15 05:35:09;;;;;;;6.28;3.03;;;24.70;46.30;;;;;;6181765;28;80880;-67
2021/05/15 05:38:10;;;;;;;5.68;2.95;;;24.70;46.30;;;;;;6174347;28;80451;-67
2021/05/15 05:41:10;;;;;;;8.98;3.45;;;24.80;46.40;;;;;;6172882;28;81072;-66
2021/05/15 05:44:11;;;;;;;5.28;2.67;;;24.80;46.20;;;;;;6172908;28;81576;-68
2021/05/15 05:47:12;;;;;;;4.85;2.65;;;24.80;46.50;;;;;;6168023;28;80754;-68
2021/05/15 05:50:12;;;;;;;5.53;3.03;;;24.80;45.90;;;;;;6175057;28;80504;-68
2021/05/15 05:53:13;;;;;;;5.93;3.10;;;24.80;46.00;;;;;;6174398;28;83092;-67
2021/05/15 05:56:14;;;;;;;3.65;2.67;;;24.80;45.90;;;;;;6173847;28;80899;-67
2021/05/15 05:59:14;;;;;;;5.13;2.97;;;24.80;45.80;;;;;;6170374;28;81924;-69
2021/05/15 06:02:17;;;;;;;5.00;2.63;;;24.80;46.00;;;;;;6175653;28;83204;-67
2021/05/15 06:05:18;;;;;;;5.95;2.40;;;24.90;46.50;;;;;;6174596;28;81164;-67
2021/05/15 06:08:19;;;;;;;3.63;2.28;;;24.90;45.70;;;;;;6169152;28;83562;-66
2021/05/15 06:11:19;;;;;;;4.45;2.47;;;24.90;45.70;;;;;;6169762;28;80511;-65
2021/05/15 06:14:20;;;;;;;2.60;2.05;;;24.90;45.60;;;;;;6177648;28;80682;-66
2021/05/15 06:17:20;;;;;;;9.70;2.42;;;24.90;45.40;;;;;;6164709;28;80631;-65
2021/05/15 06:20:21;;;;;;;6.68;3.15;;;24.90;45.10;;;;;;6164437;28;81163;-66
2021/05/15 06:23:21;;;;;;;6.15;2.28;;;24.90;45.40;;;;;;6166037;28;80515;-66
2021/05/15 06:26:22;;;;;;;3.05;1.90;;;24.90;44.50;;;;;;6176343;28;81417;-67
2021/05/15 06:29:22;;;;;;;4.65;2.20;;;24.90;45.00;;;;;;6166277;28;80547;-65
2021/05/15 06:32:23;;;;;;;3.75;2.35;;;24.90;44.20;;;;;;6167026;28;83064;-64
2021/05/15 06:35:24;;;;;;;9.80;3.30;;;24.90;43.80;;;;;;6170500;28;79999;-64
2021/05/15 06:38:24;;;;;;;5.13;2.80;;;24.80;43.80;;;;;;6170132;28;81882;-65
2021/05/15 06:41:25;;;;;;;6.38;2.92;;;24.90;44.00;;;;;;6172406;28;80424;-65
2021/05/15 06:44:25;;;;;;;5.93;3.00;;;24.80;43.70;;;;;;6168718;28;82279;-66
2021/05/15 06:47:26;;;;;;;4.75;3.42;;;24.90;43.80;;;;;;6180055;28;80137;-67
2021/05/15 06:50:26;;;;;;;6.07;3.95;;;24.90;43.90;;;;;;6177009;28;81593;-65
2021/05/15 06:53:27;;;;;;;7.32;3.70;;;24.90;44.80;;;;;;6170919;28;80183;-67
2021/05/15 06:56:27;;;;;;;8.30;4.10;;;24.90;44.50;;;;;;6178980;28;80574;-68
2021/05/15 06:59:28;;;;;;;5.53;3.78;;;24.90;44.80;;;;;;6176346;28;80777;-70
2021/05/15 07:02:28;;;;;;;4.80;3.95;;;24.90;44.90;;;;;;6170511;28;82268;-69
2021/05/15 07:05:29;;;;;;;5.80;4.47;;;24.90;45.60;;;;;;6178970;28;81072;-65
2021/05/15 07:08:31;;;;;;;8.95;4.20;;;24.90;45.70;;;;;;6177979;28;80741;-67
2021/05/15 07:11:31;;;;;;;7.97;4.07;;;24.90;45.80;;;;;;6175620;28;80355;-67
2021/05/15 07:14:32;;;;;;;9.63;4.10;;;24.90;45.00;;;;;;6177846;28;84165;-67
2021/05/15 07:17:32;;;;;;;5.90;3.55;;;24.90;44.70;;;;;;6174986;28;81462;-68
2021/05/15 07:20:33;;;;;;;8.95;3.67;;;24.90;43.80;;;;;;6173966;28;80965;-68
2021/05/15 07:23:33;;;;;;;5.82;3.38;;;24.90;43.40;;;;;;6164787;28;80402;-67
2021/05/15 07:26:34;;;;;;;7.30;3.40;;;24.90;43.40;;;;;;6179872;28;80595;-67
2021/05/15 07:29:34;;;;;;;4.22;3.13;;;24.90;43.90;;;;;;6181507;28;81827;-68
2021/05/15 07:32:35;;;;;;;3.55;2.80;;;24.90;44.00;;;;;;6175040;28;80699;-69
2021/05/15 07:35:35;;;;;;;4.07;2.72;;;24.90;42.60;;;;;;6169328;28;80490;-68
2021/05/15 07:38:36;;;;;;;7.38;3.38;;;24.80;42.20;;;;;;6179363;28;80569;-68
2021/05/15 07:41:37;;;;;;;4.47;2.58;;;24.80;42.20;;;;;;6176385;28;81058;-68
2021/05/15 07:44:37;;;;;;;4.88;2.90;;;24.80;42.20;;;;;;6177191;28;80711;-68
2021/05/15 07:47:38;;;;;;;5.63;2.95;;;24.80;42.00;;;;;;6173308;28;81549;-66
2021/05/15 07:50:38;;;;;;;6.38;2.15;;;24.80;42.00;;;;;;6172069;28;80474;-68
2021/05/15 07:53:39;;;;;;;5.18;2.50;;;24.80;42.00;;;;;;6176577;28;80950;-68
2021/05/15 07:56:39;;;;;;;5.28;2.38;;;24.80;41.90;;;;;;6180468;28;80478;-67
2021/05/15 07:59:40;;;;;;;3.40;2.45;;;24.80;41.90;;;;;;6177911;28;84493;-68
2021/05/15 08:02:41;;;;;;;3.97;2.28;;;24.80;41.40;;;;;;6171863;28;83757;-67
2021/05/15 08:05:41;;;;;;;6.20;2.22;;;24.80;41.90;;;;;;6170803;28;80443;-67
2021/05/15 08:08:42;;;;;;;2.25;2.05;;;24.80;41.60;;;;;;6173134;28;80518;-67
2021/05/15 08:11:42;;;;;;;2.85;1.88;;;24.80;41.10;;;;;;6179131;28;80883;-67
2021/05/15 08:14:43;;;;;;;3.38;1.83;;;24.80;41.20;;;;;;6179312;28;80254;-67
2021/05/15 08:17:43;;;;;;;2.35;1.85;;;24.80;41.50;;;;;;6178547;28;81235;-69
2021/05/15 08:20:44;;;;;;;5.70;2.28;;;24.90;41.30;;;;;;6179484;28;83281;-67
2021/05/15 08:23:44;;;;;;;4.15;2.65;;;24.90;41.40;;;;;;6175207;28;81583;-69
2021/05/15 08:26:45;;;;;;;2.75;1.73;;;24.90;41.30;;;;;;6177172;28;82808;-67
2021/05/15 08:29:46;;;;;;;5.57;2.47;;;24.90;41.50;;;;;;6171056;27;80429;-67
2021/05/15 08:32:46;;;;;;;2.22;1.85;;;24.90;41.20;;;;;;6173533;28;82538;-69
2021/05/15 08:35:47;;;;;;;4.70;2.10;;;24.90;41.00;;;;;;6179637;28;81581;-68
2021/05/15 08:38:47;;;;;;;2.40;2.13;;;24.90;41.60;;;;;;6176154;27;81319;-67
2021/05/15 08:41:48;;;;;;;4.70;2.25;;;24.90;40.80;;;;;;6175532;28;83091;-68
2021/05/15 08:44:48;;;;;;;2.80;2.10;;;25.00;40.90;;;;;;6178660;28;80415;-68
2021/05/15 08:47:49;;;;;;;2.53;2.22;;;25.00;40.70;;;;;;6173998;28;80492;-66
2021/05/15 08:50:50;;;;;;;5.80;1.90;;;25.00;40.50;;;;;;6176527;28;81017;-68
2021/05/15 08:53:50;;;;;;;3.30;1.90;;;25.00;40.90;;;;;;6178830;28;81745;-68
2021/05/15 08:56:51;;;;;;;2.85;1.85;;;25.00;40.50;;;;;;6177285;28;80497;-66
2021/05/15 08:59:51;;;;;;;8.18;1.83;;;25.00;40.10;;;;;;6170676;28;81536;-67
2021/05/15 09:02:52;;;;;;;3.03;1.83;;;25.00;39.90;;;;;;6174242;28;80362;-64
2021/05/15 09:05:52;;;;;;;3.67;2.03;;;25.00;40.00;;;;;;6170938;28;80517;-66
2021/05/15 09:08:53;;;;;;;8.27;2.60;;;25.00;39.90;;;;;;6169802;28;80368;-66
2021/05/15 09:11:53;;;;;;;3.25;2.30;;;25.00;39.90;;;;;;6166651;28;80384;-67
2021/05/15 09:14:54;;;;;;;3.50;2.10;;;25.00;40.20;;;;;;6170489;28;80617;-66
2021/05/15 09:17:54;;;;;;;8.20;2.17;;;25.00;39.70;;;;;;6194868;28;81616;-66
2021/05/15 09:20:55;;;;;;;5.05;2.30;;;25.00;39.80;;;;;;6171513;28;80422;-66
2021/05/15 09:23:55;;;;;;;5.95;2.45;;;25.00;39.50;;;;;;6178363;28;81443;-66
2021/05/15 09:26:56;;;;;;;3.20;2.08;;;25.00;39.70;;;;;;6176394;28;80595;-65
2021/05/15 09:29:56;;;;;;;3.83;1.88;;;25.10;39.70;;;;;;6172100;28;81963;-65
2021/05/15 09:32:58;;;;;;;2.60;1.92;;;25.10;39.40;;;;;;6168592;28;81115;-65
2021/05/15 09:35:58;;;;;;;2.60;1.80;;;25.10;39.40;;;;;;6169990;28;80757;-66
2021/05/15 09:38:59;;;;;;;6.72;2.20;;;25.10;39.20;;;;;;6175236;28;80414;-65
2021/05/15 09:41:59;;;;;;;3.13;2.08;;;25.10;39.40;;;;;;6176588;28;81154;-63
2021/05/15 09:45:00;;;;;;;3.28;2.17;;;25.10;39.40;;;;;;6171774;28;81577;-65
2021/05/15 09:48:00;;;;;;;2.70;2.10;;;25.00;39.30;;;;;;6169647;28;80686;-65
2021/05/15 09:51:02;;;;;;;11.07;2.40;;;25.10;39.00;;;;;;6173517;28;81451;-65
2021/05/15 09:54:02;;;;;;;4.20;2.10;;;25.10;39.30;;;;;;6176243;28;81030;-65
2021/05/15 09:57:03;;;;;;;5.20;2.13;;;25.00;39.40;;;;;;6171842;28;80839;-65
2021/05/15 10:00:03;;;;;;;2.58;1.88;;;25.10;39.40;;;;;;6170168;28;80330;-65
2021/05/15 10:03:13;;;;;;;3.67;2.20;;;25.00;39.10;;;;;;6169636;28;80181;-64
2021/05/15 10:06:15;;;;;;;2.55;1.65;;;25.00;39.50;;;;;;6171156;28;80131;-65
2021/05/15 10:09:15;;;;;;;3.92;2.25;;;25.00;40.10;;;;;;6169355;28;81020;-65
2021/05/15 10:12:16;;;;;;;4.10;1.80;;;25.00;39.80;;;;;;6175997;28;80348;-65
2021/05/15 10:15:16;;;;;;;3.90;2.08;;;25.10;40.80;;;;;;6181892;28;80485;-64
2021/05/15 10:18:17;;;;;;;2.85;2.28;;;25.10;41.00;;;;;;6178287;28;80462;-64
2021/05/15 10:21:18;;;;;;;3.55;2.47;;;25.10;41.00;;;;;;6176702;28;80915;-65
2021/05/15 10:24:18;;;;;;;4.57;2.00;;;25.20;41.00;;;;;;6180604;28;80725;-65
2021/05/15 10:27:19;;;;;;;4.10;2.20;;;25.10;41.00;;;;;;6180992;28;80745;-65
2021/05/15 10:30:19;;;;;;;3.65;2.03;;;25.20;43.20;;;;;;6175801;28;80775;-65
2021/05/15 10:33:20;;;;;;;5.55;2.83;;;25.20;44.00;;;;;;6177772;28;81343;-64
2021/05/15 10:36:20;;;;;;;4.85;2.38;;;25.20;43.40;;;;;;6179061;28;80773;-65
2021/05/15 10:39:21;;;;;;;4.90;2.40;;;25.20;42.20;;;;;;6171398;28;80951;-66
2021/05/15 10:42:21;;;;;;;4.28;2.15;;;25.20;42.50;;;;;;6180661;28;81185;-65
2021/05/15 10:45:22;;;;;;;3.58;1.80;;;25.20;42.50;;;;;;6183836;28;80976;-65
2021/05/15 10:48:23;;;;;;;6.32;1.98;;;25.20;42.90;;;;;;6181563;28;80561;-66
2021/05/15 10:51:23;;;;;;;2.40;1.98;;;25.20;42.30;;;;;;6175860;28;80361;-67
2021/05/15 10:54:23;;;;;;;2.90;2.53;;;25.20;41.70;;;;;;6176781;28;81455;-65
2021/05/15 10:57:26;;;;;;;3.03;2.13;;;25.20;41.30;;;;;;6190018;28;80379;-65
2021/05/15 11:00:27;;;;;;;3.70;2.15;;;25.20;41.70;;;;;;6169741;28;82582;-65
2021/05/15 11:03:27;;;;;;;2.85;2.00;;;25.20;41.50;;;;;;6176293;28;80768;-65
2021/05/15 11:06:29;;;;;;;6.95;2.25;;;25.20;41.80;;;;;;6171778;28;83184;-65
2021/05/15 11:09:29;;;;;;;6.18;2.20;;;25.30;42.20;;;;;;6176757;28;81705;-65
2021/05/15 11:12:30;;;;;;;2.03;1.80;;;25.30;41.50;;;;;;6180573;28;80144;-64
2021/05/15 11:15:30;;;;;;;2.28;2.08;;;25.30;41.70;;;;;;6180061;28;80049;-64
2021/05/15 11:18:36;;;;;;;2.97;2.30;;;25.30;40.80;;;;;;6173751;28;80413;-65
2021/05/15 11:21:36;;;;;;;5.50;2.10;;;25.20;40.50;;;;;;6175792;28;83603;-61
2021/05/15 11:24:37;;;;;;;2.65;2.30;;;25.30;40.70;;;;;;6186483;28;80502;-65
2021/05/15 11:27:37;;;;;;;3.97;2.08;;;25.20;40.50;;;;;;6178772;28;80601;-65
2021/05/15 11:30:38;;;;;;;5.10;3.15;;;25.20;40.30;;;;;;6171079;28;81045;-64
2021/05/15 11:33:38;;;;;;;8.18;3.45;;;25.20;40.60;;;;;;6172895;28;81733;-64
2021/05/15 11:36:39;;;;;;;4.80;2.50;;;25.20;40.80;;;;;;6189568;28;83369;-64
2021/05/15 11:39:39;;;;;;;3.55;2.30;;;25.20;40.30;;;;;;6180301;28;80807;-64
2021/05/15 11:42:40;;;;;;;5.35;2.35;;;25.20;39.60;;;;;;6164677;28;81030;-65
2021/05/15 11:45:40;;;;;;;3.53;2.20;;;25.10;38.20;;;;;;6178621;28;80633;-66
2021/05/15 11:48:43;;;;;;;2.63;2.05;;;25.00;36.90;;;;;;6178823;28;80439;-65
2021/05/15 11:51:44;;;;;;;3.10;2.47;;;24.60;37.00;;;;;;6178031;28;81500;-66
2021/05/15 11:54:47;;;;;;;2.85;2.47;;;24.50;37.20;;;;;;6181547;28;80403;-65
2021/05/15 11:57:48;;;;;;;5.32;2.20;;;24.60;38.40;;;;;;6179351;28;81480;-67
2021/05/15 12:00:48;;;;;;;5.00;2.33;;;24.70;38.00;;;;;;6175792;28;82398;-65
2021/05/15 12:03:49;;;;;;;4.13;1.83;;;24.90;38.30;;;;;;6169358;28;81730;-66
2021/05/15 12:06:51;;;;;;;2.92;2.05;;;24.90;38.40;;;;;;6175285;28;80313;-66
2021/05/15 12:09:52;;;;;;;3.50;1.92;;;24.80;37.40;;;;;;6176808;27;81192;-66
2021/05/15 12:12:53;;;;;;;2.67;2.03;;;24.90;37.70;;;;;;6173428;28;81085;-66
2021/05/15 12:15:53;;;;;;;2.40;2.20;;;24.90;37.80;;;;;;6178900;27;81453;-67
2021/05/15 12:18:54;;;;;;;6.03;2.92;;;24.90;37.40;;;;;;6177632;28;83825;-66
2021/05/15 12:21:54;;;;;;;6.28;3.45;;;24.90;37.60;;;;;;6173216;28;80416;-65
2021/05/15 12:24:55;;;;;;;3.88;2.92;;;24.90;37.30;;;;;;6176298;28;80657;-66
2021/05/15 12:27:56;;;;;;;3.90;2.50;;;24.90;37.20;;;;;;6176982;28;80882;-66
2021/05/15 12:30:56;;;;;;;3.33;2.33;;;25.00;37.20;;;;;;6172177;28;80044;-66
2021/05/15 12:33:57;;;;;;;3.78;1.90;;;24.90;36.80;;;;;;6173065;27;81075;-66
2021/05/15 12:36:57;;;;;;;4.07;2.10;;;24.90;36.40;;;;;;6172311;28;81583;-65
2021/05/15 12:39:58;;;;;;;2.38;2.00;;;24.70;36.80;;;;;;6175390;28;81570;-67
2021/05/15 12:42:58;;;;;;;4.72;2.60;;;24.70;36.40;;;;;;6174145;28;80229;-65
2021/05/15 12:45:59;;;;;;;3.75;1.90;;;24.70;36.80;;;;;;6173180;28;81837;-66
2021/05/15 12:48:59;;;;;;;3.10;1.95;;;24.70;36.30;;;;;;6176750;28;80655;-66
2021/05/15 12:52:00;;;;;;;5.90;2.33;;;24.70;36.50;;;;;;6174015;28;80610;-66
2021/05/15 12:55:00;;;;;;;3.08;2.08;;;24.70;37.20;;;;;;6175629;28;83867;-66
2021/05/15 12:58:01;;;;;;;1.98;1.80;;;24.80;36.80;;;;;;6179371;28;80409;-66
2021/05/15 13:01:05;;;;;;;3.50;2.15;;;24.80;37.40;;;;;;6171807;28;80116;-67
2021/05/15 13:04:05;;;;;;;4.22;2.15;;;24.80;36.70;;;;;;6178483;27;84686;-64
2021/05/15 13:07:06;;;;;;;2.50;1.70;;;24.60;36.00;;;;;;6177194;28;81906;-65
2021/05/15 13:10:06;;;;;;;7.00;2.47;;;24.70;36.50;;;;;;6176206;28;80894;-64
2021/05/15 13:13:07;;;;;;;2.40;1.75;;;24.80;36.90;;;;;;6175956;28;81497;-65
2021/05/15 13:16:08;;;;;;;2.03;1.90;;;24.80;37.00;;;;;;6177442;27;80803;-65
2021/05/15 13:19:09;;;;;;;8.02;2.00;;;24.90;37.10;;;;;;6177395;28;80990;-65
2021/05/15 13:22:10;;;;;;;3.17;1.83;;;24.90;37.30;;;;;;6176791;27;80304;-65
2021/05/15 13:25:11;;;;;;;3.20;2.03;;;25.00;37.70;;;;;;6174956;27;87579;-65
2021/05/15 13:28:11;;;;;;;2.75;1.95;;;25.00;37.40;;;;;;6174077;28;86663;-66
2021/05/15 13:31:12;;;;;;;2.70;2.17;;;25.00;37.30;;;;;;6178356;28;80602;-66
2021/05/15 13:34:12;;;;;;;4.63;2.30;;;25.00;37.60;;;;;;6174579;28;80706;-66
2021/05/15 13:37:13;;;;;;;2.47;2.28;;;25.10;37.90;;;;;;6173912;27;81250;-66
2021/05/15 13:40:14;;;;;;;8.10;2.55;;;25.10;37.70;;;;;;6175850;28;80480;-66
2021/05/15 13:43:14;;;;;;;2.97;2.33;;;25.10;37.90;;;;;;6175871;27;81771;-65
2021/05/15 13:46:15;;;;;;;6.75;2.28;;;25.20;38.20;;;;;;6176958;28;81580;-66
2021/05/15 13:49:15;;;;;;;3.92;2.50;;;25.20;38.30;;;;;;6178424;28;83714;-66
2021/05/15 13:52:16;;;;;;;5.35;2.80;;;25.20;38.60;;;;;;6180391;28;81770;-67
2021/05/15 13:55:16;;;;;;;6.00;2.42;;;25.30;38.40;;;;;;6179495;28;80356;-66
2021/05/15 13:58:17;;;;;;;4.82;2.70;;;25.20;38.00;;;;;;6181397;28;81107;-68
2021/05/15 14:01:17;;;;;;;3.88;2.53;;;25.30;38.10;;;;;;6182987;28;81135;-66
2021/05/15 14:04:18;;;;;;;4.38;2.90;;;25.30;38.10;;;;;;6180394;28;80697;-67
2021/05/15 14:07:18;;;;;;;3.40;2.30;;;25.30;38.40;;;;;;6176984;28;80791;-66
2021/05/15 14:10:19;;;;;;;3.55;2.30;;;25.30;38.50;;;;;;6180120;27;80896;-67
2021/05/15 14:13:19;;;;;;;4.20;2.47;;;25.30;38.70;;;;;;6179857;28;80948;-66
2021/05/15 14:16:20;;;;;;;4.50;2.45;;;25.30;38.60;;;;;;6178225;28;81656;-67
2021/05/15 14:19:20;;;;;;;5.47;2.53;;;25.30;39.30;;;;;;6176394;28;80226;-66
2021/05/15 14:22:21;;;;;;;4.90;2.58;;;25.30;38.60;;;;;;6178240;28;81547;-66
2021/05/15 14:25:21;;;;;;;3.22;2.67;;;25.30;38.60;;;;;;6175553;27;81487;-64
2021/05/15 14:28:22;;;;;;;3.67;2.30;;;25.30;38.40;;;;;;6179030;28;81568;-68
2021/05/15 14:31:22;;;;;;;5.88;2.63;;;25.30;38.40;;;;;;6175689;28;80662;-65
2021/05/15 14:34:23;;;;;;;3.47;2.47;;;25.30;38.50;;;;;;6174100;28;80646;-66
2021/05/15 14:37:23;;;;;;;4.63;2.65;;;25.20;38.80;;;;;;6193397;28;80111;-65
2021/05/15 14:40:27;;;;;;;2.95;2.30;;;25.30;38.80;;;;;;6169170;28;80583;-64
2021/05/15 14:43:29;;;;;;;3.75;2.33;;;25.30;39.50;;;;;;6173415;28;80453;-64
2021/05/15 14:46:29;;;;;;;3.78;2.63;;;25.30;39.20;;;;;;6167713;28;81445;-65
2021/05/15 14:49:30;;;;;;;6.65;2.85;;;25.30;39.80;;;;;;6180275;28;80254;-63
2021/05/15 14:52:31;;;;;;;3.33;2.30;;;25.20;40.00;;;;;;6177632;28;80896;-64
2021/05/15 14:55:31;;;;;;;3.55;2.15;;;25.30;39.60;;;;;;6171679;28;82976;-65
2021/05/15 14:58:36;;;;;;;6.25;2.33;;;25.30;39.10;;;;;;6178153;28;81670;-64
2021/05/15 15:01:36;;;;;;;5.45;2.50;;;25.30;39.20;;;;;;6179565;28;81130;-64
2021/05/15 15:04:37;;;;;;;8.57;2.50;;;25.30;39.50;;;;;;6180955;28;80441;-67
2021/05/15 15:07:37;;;;;;;10.43;2.80;;;25.30;39.30;;;;;;6173600;28;80868;-64
2021/05/15 15:10:41;;;;;;;6.13;2.10;;;25.30;39.30;;;;;;6173026;28;80482;-66
2021/05/15 15:13:41;;;;;;;3.38;2.25;;;25.30;39.60;;;;;;6175619;28;80701;-66
2021/05/15 15:16:42;;;;;;;12.80;2.42;;;25.30;39.30;;;;;;6176313;28;83199;-66
2021/05/15 15:19:43;;;;;;;4.85;2.35;;;25.30;39.40;;;;;;6179510;28;80671;-65
2021/05/15 15:22:43;;;;;;;9.50;2.42;;;25.30;39.20;;;;;;6169227;28;80761;-64
2021/05/15 15:25:44;;;;;;;5.43;2.10;;;25.30;40.00;;;;;;6179795;28;80130;-64
2021/05/15 15:28:44;;;;;;;4.22;2.10;;;25.30;39.20;;;;;;6166427;28;80608;-64
2021/05/15 15:31:45;;;;;;;6.97;2.22;;;25.30;39.20;;;;;;6177214;28;80331;-65
2021/05/15 15:34:45;;;;;;;2.90;2.35;;;25.30;39.00;;;;;;6179103;28;81274;-64
2021/05/15 15:37:47;;;;;;;3.67;2.28;;;25.20;39.00;;;;;;6174574;28;80442;-65